Flight Track Log - Related Links

Times and Time Zones

All times are in EDT time to prevent confusion due to time zone crossing. See the AZU4312 flight status page for this flight to view local times or setup timezone preferences in your user account.

Time Position Orientation Groundspeed Altitude Reporting Facility
EDT Latitude Longitude Course Direction KTS MPH feet Rate Location/Type
Thu 10:17:39 AM -23.0430 -47.2520 252° West 191 220 5,400  Level FlightAware ADS-B
Thu 10:18:34 AM -23.0590 -47.3030 251° West 190 219 6,600 1,200 Climbing FlightAware ADS-B
Thu 10:19:14 AM -23.0700 -47.3390 252° West 189 217 7,300 1,059 Climbing FlightAware ADS-B
Thu 10:19:59 AM -23.0810 -47.3790 253° West 187 215 8,100 1,050 Climbing FlightAware ADS-B
Thu 10:20:34 AM -23.0900 -47.4090 252° West 184 212 8,700 868 Climbing FlightAware ADS-B
Thu 10:21:15 AM -23.1000 -47.4440 253° West 187 215 9,200 825 Climbing FlightAware ADS-B
Thu 10:21:54 AM -23.1100 -47.4820 254° West 188 216 9,800 436 Climbing FlightAware ADS-B
Thu 10:23:05 AM -23.1310 -47.5520 252° West 222 255 10,000 108 Climbing FlightAware ADS-B
Thu 10:23:45 AM -23.1420 -47.5960 255° West 237 273 10,000 977 Level FlightAware ADS-B
Thu 10:24:31 AM -23.1340 -47.6420 281° West 195 224 11,400 1,291 Climbing FlightAware ADS-B
Thu 10:25:04 AM -23.1100 -47.6650 319° Northwest 201 231 11,700 689 Climbing FlightAware ADS-B
Thu 10:25:32 AM -23.0900 -47.6830 320° Northwest 203 234 12,100 646 Climbing FlightAware ADS-B
Thu 10:26:09 AM -23.0660 -47.7040 321° Northwest 208 239 12,400 652 Climbing FlightAware ADS-B
Thu 10:27:04 AM -23.0230 -47.7430 320° Northwest 209 241 13,100 659 Climbing FlightAware ADS-B
Thu 10:27:40 AM -22.9960 -47.7670 321° Northwest 214 246 13,400 525 Climbing FlightAware ADS-B
Thu 10:28:24 AM -22.9610 -47.7990 320° Northwest 215 247 13,800 527 Climbing FlightAware ADS-B
Thu 10:29:11 AM -22.9250 -47.8310 321° Northwest 222 255 14,200 468 Climbing FlightAware ADS-B
Thu 10:29:41 AM -22.9090 -47.8460 319° Northwest 222 255 14,400 391 Climbing FlightAware ADS-B
Thu 10:30:43 AM -22.8580 -47.8910 321° Northwest 222 255 14,800 611 Climbing FlightAware ADS-B
Thu 10:31:29 AM -22.8120 -47.9330 320° Northwest 226 260 15,500 711 Climbing FlightAware ADS-B
Thu 10:31:59 AM -22.7870 -47.9550 321° Northwest 225 259 15,700 488 Climbing FlightAware ADS-B
Thu 10:32:55 AM -22.7430 -47.9950 320° Northwest 225 259 16,200 500 Climbing FlightAware ADS-B
Thu 10:33:47 AM -22.7000 -48.0330 321° Northwest 225 259 16,600 433 Climbing FlightAware ADS-B
Thu 10:34:32 AM -22.6630 -48.0660 321° Northwest 228 262 16,900 414 Climbing FlightAware ADS-B
Thu 10:35:14 AM -22.6290 -48.0960 321° Northwest 227 261 17,200 462 Climbing FlightAware ADS-B
Thu 10:35:50 AM -22.6000 -48.1220 320° Northwest 227 261 17,500 417 Climbing FlightAware ADS-B
Thu 10:36:26 AM -22.5710 -48.1480 320° Northwest 227 261 17,700 395 Climbing FlightAware ADS-B
Thu 10:37:06 AM -22.5380 -48.1770 321° Northwest 227 261 18,000 225 Climbing FlightAware ADS-B
Thu 10:37:46 AM -22.5040 -48.2070 321° Northwest 237 273 18,000  Level FlightAware ADS-B
Thu 10:38:27 AM -22.4700 -48.2380 320° Northwest 246 283 18,000  Level FlightAware ADS-B
Thu 10:39:02 AM -22.4380 -48.2660 321° Northwest 252 290 18,000  Level FlightAware ADS-B
Thu 10:39:42 AM -22.4010 -48.3000 320° Northwest 259 298 18,000  Level FlightAware ADS-B
Thu 10:40:18 AM -22.3670 -48.3300 321° Northwest 261 300 18,000  Level FlightAware ADS-B
Thu 10:41:08 AM -22.3200 -48.3710 321° Northwest 262 302 18,000  Level FlightAware ADS-B
Thu 10:42:01 AM -22.2710 -48.4150 320° Northwest 264 304 18,000  Level FlightAware ADS-B
Thu 10:42:45 AM -22.2310 -48.4500 321° Northwest 264 304 18,000  Level FlightAware ADS-B
Thu 10:43:17 AM -22.1990 -48.4780 321° Northwest 264 304 18,000  Level FlightAware ADS-B
Thu 10:44:02 AM -22.1560 -48.5170 320° Northwest 264 304 18,000  Level FlightAware ADS-B
Thu 10:44:45 AM -22.1150 -48.5530 321° Northwest 263 303 18,000  Level FlightAware ADS-B
Thu 10:45:16 AM -22.0850 -48.5800 320° Northwest 265 305 18,000  Level FlightAware ADS-B
Thu 10:45:52 AM -22.0510 -48.6090 322° Northwest 263 303 18,000  Level FlightAware ADS-B
Thu 10:46:24 AM -22.0210 -48.6360 320° Northwest 262 302 18,000  Level FlightAware ADS-B
Thu 10:47:04 AM -21.9830 -48.6700 320° Northwest 261 300 18,000  Level FlightAware ADS-B
Thu 10:47:32 AM -21.9570 -48.6920 322° Northwest 261 300 18,000  Level FlightAware ADS-B
Thu 10:48:18 AM -21.9130 -48.7310 321° Northwest 261 300 18,000  Level FlightAware ADS-B
Thu 10:48:58 AM -21.8760 -48.7640 320° Northwest 262 302 18,000  Level FlightAware ADS-B
Thu 10:49:38 AM -21.8380 -48.7970 321° Northwest 261 300 18,000  Level FlightAware ADS-B
Thu 10:50:26 AM -21.7930 -48.8370 320° Northwest 261 300 18,000  Level FlightAware ADS-B
Thu 10:51:06 AM -21.7550 -48.8700 321° Northwest 262 302 18,000  Level FlightAware ADS-B
Thu 10:51:48 AM -21.7160 -48.9040 321° Northwest 262 302 18,000  Level FlightAware ADS-B
Thu 10:52:24 AM -21.6820 -48.9340 321° Northwest 263 303 18,000  Level FlightAware ADS-B
Thu 10:53:04 AM -21.6430 -48.9680 321° Northwest 263 303 18,000  Level FlightAware ADS-B
Thu 10:53:38 AM -21.6120 -48.9950 321° Northwest 263 303 18,000  Level FlightAware ADS-B
Thu 10:54:22 AM -21.5700 -49.0320 321° Northwest 263 303 18,000  Level FlightAware ADS-B
Thu 10:55:08 AM -21.5270 -49.0700 321° Northwest 262 302 18,000  Level FlightAware ADS-B
Thu 10:55:48 AM -21.4880 -49.1040 321° Northwest 262 302 18,000  Level FlightAware ADS-B
Thu 10:56:36 AM -21.4440 -49.1420 321° Northwest 262 302 18,000  Level FlightAware ADS-B
Thu 10:57:03 AM -21.4180 -49.1650 321° Northwest 262 302 18,000  Level FlightAware ADS-B
Thu 10:57:48 AM -21.3760 -49.2020 321° Northwest 261 300 18,000  Level FlightAware ADS-B
Thu 10:58:34 AM -21.3320 -49.2400 321° Northwest 260 299 18,000 -643 Level FlightAware ADS-B
Thu 10:59:12 AM -21.2940 -49.2730 321° Northwest 293 337 17,100 -1,807 Descending FlightAware ADS-B
Thu 10:59:57 AM -21.2440 -49.3160 321° Northwest 310 357 15,500 -2,176 Descending FlightAware ADS-B
Thu 11:00:43 AM -21.1930 -49.3610 321° Northwest 304 350 13,800 -2,211 Descending FlightAware ADS-B
Thu 11:01:13 AM -21.1620 -49.3880 321° Northwest 287 330 12,700 -2,108 Descending FlightAware ADS-B
Thu 11:01:57 AM -21.1170 -49.4260 322° Northwest 265 305 11,200 -1,976 Descending FlightAware ADS-B
Thu 11:02:35 AM -21.0820 -49.4570 320° Northwest 253 291 10,000 -1,818 Descending FlightAware ADS-B
Thu 11:03:03 AM -21.0570 -49.4780 322° Northwest 243 280 9,200 -1,500 Descending FlightAware ADS-B
Thu 11:03:43 AM -21.0240 -49.5070 321° Northwest 223 257 8,300 -880 Descending FlightAware ADS-B
Thu 11:04:18 AM -20.9990 -49.5290 321° Northwest 218 251 8,100 -964 Descending FlightAware ADS-B
Thu 11:04:39 AM -20.9820 -49.5320 351° North 212 244 7,400 -1,698 Descending FlightAware ADS-B
Thu 11:05:11 AM -20.9530 -49.5420 342° North 212 244 6,600 -1,352 Descending FlightAware ADS-B
Thu 11:05:50 AM -20.9160 -49.5380 North 191 220 5,800 -1,159 Descending FlightAware ADS-B
Thu 11:06:39 AM -20.8930 -49.5090 50° Northeast 155 178 4,900 -1,299 Descending FlightAware ADS-B
Thu 11:07:27 AM -20.8710 -49.4780 53° Northeast 158 182 3,700 -1,200 Descending FlightAware ADS-B
Thu 11:08:19 AM -20.8510 -49.4520 51° Northeast 118 136 2,900 -938 Descending FlightAware ADS-B
Thu 11:09:03 AM -20.8340 -49.4300 50° Northeast 120 138 2,200 -789 Descending FlightAware ADS-B
Thu 11:09:35 AM -20.8250 -49.4170 53° Northeast 114 131 1,900 -563 Descending FlightAware ADS-B
Thu 11:10:15 AM -20.8130 -49.4020 49° Northeast 111 128 -2,850 Descending FlightAware ADS-B
Thu 11:10:31 AM -20.8120 -49.4010 43° Northeast 111 128  Level FlightAware ADS-B
Thu 11:10:55 AM -20.8120 -49.4020 270° West 111 128  Level FlightAware ADS-B
Thu 11:11:50 AM -20.8130 -49.4030 223° Southwest 111 128  Level FlightAware ADS-B
Thu 11:12:18 AM -20.8130 -49.3900 90° East 111 128  Level FlightAware ADS-B
Thu 11:15:00 AM -20.8166 -49.4065 257° West  Level Estimated
Thu 11:16:00 AM -20.8166 -49.4065 343° North  Level Estimated
Thu 11:17:00 AM -20.8166 -49.4065 343° North  Level Estimated
Thu 11:18:00 AM -20.8166 -49.4065 343° North  Level Estimated
Thu 11:19:00 AM -20.8166 -49.4065 343° North  Level Estimated
Thu 11:20:00 AM -20.8166 -49.4065 343° North  Level Estimated
Thu 11:21:00 AM -20.8166 -49.4065 343° North  Level Estimated
Thu 11:22:00 AM -20.8166 -49.4065 343° North  Level Estimated
Thu 11:23:00 AM -20.8166 -49.4065 343° North  Level Estimated
Thu 11:24:00 AM -20.8166 -49.4065 343° North  Level Estimated
Thu 11:25:00 AM -20.8166 -49.4065 343° North  Level Estimated
Thu 11:26:00 AM -20.8166 -49.4065 343° North  Level Estimated
Thu 11:27:00 AM -20.8166 -49.4065 343° North  Level Estimated
Thu 11:28:00 AM -20.8166 -49.4065 343° North  Level Estimated
Thu 11:29:00 AM -20.8166 -49.4065 343° North  Level Estimated
Thu 11:30:00 AM -20.8166 -49.4065 343° North  Level Estimated
Thu 11:31:00 AM -20.8166 -49.4065 343° North  Level Estimated
Thu 11:32:00 AM -20.8166 -49.4065 343° North  Level Estimated
Thu 11:33:00 AM -20.8166 -49.4065 343° North  Level Estimated
Thu 11:34:00 AM -20.8166 -49.4065 343° North  Level Estimated
Thu 11:35:00 AM -20.8166 -49.4065 343° North  Level Estimated
Thu 11:36:00 AM -20.8166 -49.4065 343° North  Level Estimated
Thu 11:37:00 AM -20.8166 -49.4065 343° North  Level Estimated
Thu 11:38:00 AM -20.8166 -49.4065 343° North  Level Estimated
Thu 11:39:00 AM -20.8166 -49.4065 343° North  Level Estimated

Login

Don't have an account? Register now (free) for customized features, flight alerts, and more!